Los Angeles, California
Current Conditions -  °F | °C
As of 3:47 AM on Wednesday 28 Jan 2015 (Local Time) from KCQT Reporting Station
Clear Clear  
Wind Chill: 58°   Ceiling: Unl
Heat Index: 58°   Visibility: 10mi
Dew Point: 47°   Wind: 3mph
Humidity: 67%   Direction: 10°N
Pressure: 30.14"   Gusts: NA
Location:  34.05°N, 118.24°W
Report Text: KCQT 281147Z AUTO 01003KT 10SM CLR 14/08 A3014 RMK AO2 SLP206 T01440083 10156 20133 58008 $
Loading
Personal Weather Stations






























Interactive Weather Map New forecast layout! Learn more

10-Day Weather Forecast

Advertisements
Track Severe Weather on mobile